createdAt,value
2023-05-04T00:00:31.461Z,74.87
2023-05-04T00:05:31.555Z,74.36
2023-05-04T00:10:31.517Z,74.80
2023-05-04T00:15:31.355Z,75.63
2023-05-04T00:20:31.190Z,75.63
2023-05-04T00:25:31.219Z,75.76
2023-05-04T00:30:31.197Z,76.38
2023-05-04T00:35:31.114Z,76.69
2023-05-04T00:40:31.009Z,76.28
2023-05-04T00:45:30.945Z,76.62
2023-05-04T00:50:31.039Z,77.45
2023-05-04T00:55:30.845Z,77.86
2023-05-04T01:00:30.945Z,78.06
2023-05-04T01:05:31.891Z,77.79
2023-05-04T01:10:30.801Z,78.10
2023-05-04T01:15:30.636Z,79.03
2023-05-04T01:20:30.788Z,78.41
2023-05-04T01:25:30.485Z,78.72
2023-05-04T01:30:30.547Z,78.55
2023-05-04T01:35:30.481Z,78.96
2023-05-04T01:40:30.335Z,79.47
2023-05-04T01:45:30.311Z,79.58
2023-05-04T01:50:30.255Z,79.82
2023-05-04T01:55:30.190Z,80.13
2023-05-04T02:00:30.324Z,79.93
2023-05-04T02:05:31.166Z,80.65
2023-05-04T02:10:30.153Z,80.33
2023-05-04T02:15:29.984Z,80.44
2023-05-04T02:20:29.926Z,80.23
2023-05-04T02:25:29.866Z,80.54
2023-05-04T02:30:29.798Z,80.54
2023-05-04T02:35:29.993Z,80.65
2023-05-04T02:40:29.716Z,80.47
2023-05-04T02:45:29.891Z,80.89
2023-05-04T02:50:29.599Z,80.89
2023-05-04T02:55:29.572Z,80.72
2023-05-04T03:00:29.594Z,81.03
2023-05-04T03:05:29.500Z,81.44
2023-05-04T03:10:29.475Z,80.86
2023-05-04T03:15:29.340Z,81.37
2023-05-04T03:20:29.464Z,81.79
2023-05-04T03:25:29.400Z,81.58
2023-05-04T03:30:29.175Z,81.79
2023-05-04T03:35:29.184Z,82.40
2023-05-04T03:40:29.039Z,82.30
2023-05-04T03:45:29.033Z,82.40
2023-05-04T03:50:28.941Z,82.40
2023-05-04T03:55:28.900Z,82.82
2023-05-04T04:00:29.056Z,82.40
2023-05-04T04:05:28.881Z,82.71
2023-05-04T04:10:28.837Z,82.30
2023-05-04T04:15:28.759Z,82.45
2023-05-04T04:20:32.098Z,82.24
2023-05-04T04:25:28.673Z,82.45
2023-05-04T04:30:28.559Z,82.45
2023-05-04T04:35:28.474Z,82.55
2023-05-04T04:40:28.405Z,82.45
2023-05-04T04:45:28.367Z,82.51
2023-05-04T04:50:28.326Z,82.71
2023-05-04T04:55:28.395Z,82.26
2023-05-04T05:00:28.357Z,82.68
2023-05-04T05:05:29.164Z,82.16
2023-05-04T05:10:28.335Z,81.85
2023-05-04T05:15:28.250Z,81.65
2023-05-04T05:20:27.994Z,81.51
2023-05-04T05:25:27.953Z,80.54
2023-05-04T05:30:27.852Z,80.61
2023-05-04T05:35:27.812Z,79.61
2023-05-04T05:40:27.775Z,78.71
2023-05-04T05:45:27.746Z,77.10
2023-05-04T05:50:27.854Z,75.49
2023-05-04T05:55:27.791Z,74.46
2023-05-04T06:00:27.689Z,73.16
2023-05-04T06:05:27.515Z,71.77
2023-05-04T06:10:27.447Z,71.22
2023-05-04T06:15:36.234Z,69.35
2023-05-04T06:20:27.398Z,69.86
2023-05-04T06:25:27.300Z,68.10
2023-05-04T06:30:36.628Z,66.78
2023-05-04T06:35:27.239Z,66.75
2023-05-04T06:40:27.129Z,67.83
2023-05-04T06:45:27.223Z,67.30
2023-05-04T06:50:27.149Z,67.24
2023-05-04T06:55:27.013Z,65.85
2023-05-04T07:00:27.071Z,63.46
2023-05-04T07:05:26.915Z,60.86
2023-05-04T07:10:26.888Z,59.59
2023-05-04T07:15:26.718Z,56.18
2023-05-04T07:20:26.735Z,53.22
2023-05-04T07:25:26.610Z,52.14
2023-05-04T07:30:26.604Z,50.10
2023-05-04T07:35:26.581Z,48.94
2023-05-04T07:40:26.485Z,48.27
2023-05-04T07:45:26.519Z,47.34
2023-05-04T07:50:26.366Z,47.22
2023-05-04T07:55:26.427Z,46.41
2023-05-04T08:00:26.221Z,46.11
2023-05-04T08:05:26.216Z,45.69
2023-05-04T08:10:26.150Z,45.14
2023-05-04T08:15:26.109Z,44.00
2023-05-04T08:20:26.216Z,43.66
2023-05-04T08:25:26.082Z,43.26
2023-05-04T08:30:25.949Z,43.51
2023-05-04T08:35:25.895Z,42.41
2023-05-04T08:40:25.851Z,42.54
2023-05-04T08:45:25.822Z,42.60
2023-05-04T08:50:25.749Z,42.91
2023-05-04T08:55:25.707Z,42.93
2023-05-04T09:00:25.767Z,41.96
2023-05-04T09:05:25.636Z,41.80
2023-05-04T09:10:29.383Z,41.93
2023-05-04T09:15:25.497Z,42.73
2023-05-04T09:20:25.445Z,41.41
2023-05-04T09:25:25.408Z,41.09
2023-05-04T09:30:25.311Z,41.00
2023-05-04T09:35:32.529Z,41.44
2023-05-04T09:40:26.252Z,41.55
2023-05-04T09:45:25.217Z,38.73
2023-05-04T09:50:26.118Z,37.87
2023-05-04T09:55:25.077Z,38.67
2023-05-04T10:00:25.096Z,38.07
2023-05-04T10:05:24.992Z,37.53
2023-05-04T10:10:24.937Z,37.02
2023-05-04T10:15:24.895Z,36.60
2023-05-04T10:20:24.768Z,36.40
2023-05-04T10:25:24.844Z,35.87
2023-05-04T10:30:24.723Z,35.67
2023-05-04T10:35:25.699Z,35.27
2023-05-04T10:40:24.713Z,36.68
2023-05-04T10:45:24.630Z,36.45
2023-05-04T10:50:24.577Z,35.21
2023-05-04T10:55:24.472Z,33.64
2023-05-04T11:00:24.405Z,33.59
2023-05-04T11:05:24.444Z,34.06
2023-05-04T11:10:24.336Z,32.82
2023-05-04T11:15:24.369Z,32.66
2023-05-04T11:20:24.272Z,32.02
2023-05-04T11:25:24.219Z,31.31
2023-05-04T11:30:24.233Z,30.74
2023-05-04T11:35:24.114Z,29.71
2023-05-04T11:40:24.055Z,31.38
2023-05-04T11:45:24.071Z,31.23
2023-05-04T11:50:23.961Z,32.43
2023-05-04T11:55:24.942Z,31.99
2023-05-04T12:00:23.926Z,29.30
2023-05-04T12:05:23.879Z,29.46
2023-05-04T12:10:23.799Z,29.82
2023-05-04T12:15:23.742Z,30.23
2023-05-04T12:20:23.702Z,31.11
2023-05-04T12:25:23.659Z,30.88
2023-05-04T12:30:23.702Z,29.68
2023-05-04T12:35:32.504Z,29.37
2023-05-04T12:40:28.705Z,29.38
2023-05-04T12:45:24.477Z,29.25
2023-05-04T12:50:23.455Z,30.27
2023-05-04T12:55:25.329Z,30.67
2023-05-04T13:00:23.326Z,29.90
2023-05-04T13:05:23.259Z,27.19
2023-05-04T13:10:23.186Z,28.86
2023-05-04T13:15:23.170Z,29.34
2023-05-04T13:20:23.193Z,28.58
2023-05-04T13:25:23.105Z,32.06
2023-05-04T13:30:23.048Z,30.04
2023-05-04T13:35:23.070Z,30.49
2023-05-04T13:40:23.034Z,28.96
2023-05-04T13:45:22.964Z,29.78
2023-05-04T13:50:22.803Z,29.97
2023-05-04T13:55:22.831Z,31.16
2023-05-04T14:00:22.751Z,27.21
2023-05-04T14:05:22.702Z,27.89
2023-05-04T14:10:22.835Z,28.64
2023-05-04T14:15:22.854Z,27.55
2023-05-04T14:20:22.673Z,24.17
2023-05-04T14:25:22.538Z,26.39
2023-05-04T14:30:24.572Z,26.33
2023-05-04T14:35:22.481Z,26.42
2023-05-04T14:40:22.332Z,25.73
2023-05-04T14:45:22.259Z,26.91
2023-05-04T14:50:22.230Z,28.97
2023-05-04T14:55:22.220Z,25.49
2023-05-04T15:00:22.293Z,26.68
2023-05-04T15:05:22.070Z,26.82
2023-05-04T15:10:22.100Z,25.52
2023-05-04T15:15:22.093Z,25.24
2023-05-04T15:20:22.020Z,26.12
2023-05-04T15:25:21.864Z,25.14
2023-05-04T15:30:21.853Z,28.30
2023-05-04T15:35:21.766Z,25.73
2023-05-04T15:40:21.879Z,27.91
2023-05-04T15:45:21.692Z,29.71
2023-05-04T15:50:21.690Z,26.95
2023-05-04T15:55:25.480Z,27.66
2023-05-04T16:00:21.533Z,27.08
2023-05-04T16:05:21.443Z,27.36
2023-05-04T16:10:21.417Z,26.78
2023-05-04T16:15:21.362Z,27.86
2023-05-04T16:20:22.436Z,26.49
2023-05-04T16:25:21.541Z,26.89
2023-05-04T16:30:21.301Z,26.59
2023-05-04T16:35:21.146Z,28.19
2023-05-04T16:40:21.075Z,28.76
2023-05-04T16:45:21.083Z,28.17
2023-05-04T16:50:21.008Z,28.46
2023-05-04T16:55:20.919Z,27.78
2023-05-04T17:00:20.928Z,27.00
2023-05-04T17:05:20.884Z,29.86
2023-05-04T17:10:20.838Z,29.80
2023-05-04T17:15:20.729Z,29.60
2023-05-04T17:20:20.646Z,31.18
2023-05-04T17:25:20.592Z,30.51
2023-05-04T17:30:20.580Z,30.83
2023-05-04T17:35:25.939Z,31.73
2023-05-04T17:40:21.608Z,31.53
2023-05-04T17:45:20.454Z,33.62
2023-05-04T17:50:20.363Z,32.74
2023-05-04T17:55:20.388Z,34.25
2023-05-04T18:00:20.215Z,33.45
2023-05-04T18:05:20.265Z,34.45
2023-05-04T18:10:20.148Z,35.26
2023-05-04T18:15:20.137Z,37.07
2023-05-04T18:20:20.091Z,36.39
2023-05-04T18:25:20.058Z,38.29
2023-05-04T18:30:19.939Z,39.42
2023-05-04T18:35:19.845Z,39.72
2023-05-04T18:40:19.784Z,39.82
2023-05-04T18:45:19.738Z,41.44
2023-05-04T18:50:19.699Z,37.46
2023-05-04T18:55:19.684Z,40.23
2023-05-04T19:00:19.603Z,40.36
2023-05-04T19:05:19.536Z,40.17
2023-05-04T19:10:19.598Z,41.67
2023-05-04T19:15:19.468Z,42.19
2023-05-04T19:20:19.622Z,42.02
2023-05-04T19:25:30.994Z,43.32
2023-05-04T19:30:20.334Z,44.04
2023-05-04T19:35:19.305Z,43.66
2023-05-04T19:40:19.153Z,44.18
2023-05-04T19:45:19.109Z,45.10
2023-05-04T19:50:27.915Z,45.58
2023-05-04T19:55:19.044Z,45.53
2023-05-04T20:00:18.961Z,47.55
2023-05-04T20:05:18.909Z,48.55
2023-05-04T20:10:18.961Z,47.80
2023-05-04T20:15:18.807Z,48.90
2023-05-04T20:20:19.720Z,48.83
2023-05-04T20:25:18.759Z,50.26
2023-05-04T20:30:18.628Z,49.85
2023-05-04T20:35:18.601Z,50.28
2023-05-04T20:40:18.475Z,50.18
2023-05-04T20:45:18.440Z,50.18
2023-05-04T20:50:18.424Z,51.51
2023-05-04T20:55:18.299Z,51.51
2023-05-04T21:00:18.347Z,50.73
2023-05-04T21:05:18.334Z,50.60
2023-05-04T21:10:18.164Z,52.01
2023-05-04T21:15:18.138Z,51.81
2023-05-04T21:20:18.109Z,51.11
2023-05-04T21:25:18.050Z,50.89
2023-05-04T21:30:17.968Z,50.48
2023-05-04T21:35:17.889Z,51.11
2023-05-04T21:40:17.826Z,50.38
2023-05-04T21:45:17.808Z,50.56
2023-05-04T21:50:17.742Z,49.65
2023-05-04T21:55:17.716Z,49.85
2023-05-04T22:00:17.637Z,49.05
2023-05-04T22:05:17.589Z,49.53
2023-05-04T22:10:17.527Z,49.63
2023-05-04T22:15:17.460Z,49.85
2023-05-04T22:20:17.545Z,48.83
2023-05-04T22:25:17.453Z,49.33
2023-05-04T22:30:17.398Z,50.35
2023-05-04T22:35:17.216Z,50.26
2023-05-04T22:40:17.178Z,50.05
2023-05-04T22:45:17.157Z,49.43
2023-05-04T22:50:17.068Z,50.13
2023-05-04T22:55:17.042Z,51.56
2023-05-04T23:00:16.997Z,51.99
2023-05-04T23:05:17.036Z,52.92
2023-05-04T23:10:16.940Z,51.71
2023-05-04T23:15:16.881Z,53.34
2023-05-04T23:20:16.893Z,53.95
2023-05-04T23:25:16.803Z,53.55
2023-05-04T23:30:16.734Z,54.18
2023-05-04T23:35:16.620Z,54.58
2023-05-04T23:40:16.539Z,54.38
2023-05-04T23:45:16.473Z,54.58
2023-05-04T23:50:16.402Z,54.88
2023-05-04T23:55:16.456Z,56.40
